Time;durP1;ratioP1;P1;durP2;ratioP2;P2;SDS_P1;SDS_P2;PMS_P1;PMS_P2;Temp;Humidity;BMP_temperature;BMP_pressure;BME280_temperature;BME280_humidity;BME280_pressure;Samples;Min_cycle;Max_cycle;Signal;HPM_P1;HPM_P2
2022/03/29 00:00:17;;;;;;;20.48;8.82;;;;;;;;;;5092695;28;20077;-74
2022/03/29 00:02:43;;;;;;;23.95;9.35;;;;;;;;;;5083905;28;20024;-75
2022/03/29 00:05:09;;;;;;;28.88;9.30;;;;;;;;;;5061046;28;20028;-74
2022/03/29 00:07:35;;;;;;;31.83;9.25;;;;;;;;;;5085811;28;20387;-74
2022/03/29 00:10:04;;;;;;;26.27;9.02;;;;;;;;;;5074827;28;20035;-74
2022/03/29 00:12:31;;;;;;;15.32;7.72;;;;;;;;;;5122044;22;20036;-70
2022/03/29 00:14:57;;;;;;;27.58;9.13;;;;;;;;;;5085602;28;20035;-70
2022/03/29 00:17:23;;;;;;;22.50;9.15;;;;;;;;;;5091956;28;20031;-69
2022/03/29 00:19:52;;;;;;;20.17;8.63;;;;;;;;;;5110046;28;20389;-69
2022/03/29 00:22:18;;;;;;;25.13;7.82;;;;;;;;;;5091874;28;20065;-69
2022/03/29 00:24:44;;;;;;;22.15;9.40;;;;;;;;;;5092403;28;20051;-69
2022/03/29 00:27:11;;;;;;;21.23;8.70;;;;;;;;;;5110114;27;20063;-70
2022/03/29 00:29:37;;;;;;;22.20;9.80;;;;;;;;;;5091834;28;20506;-70
2022/03/29 00:32:03;;;;;;;22.95;9.60;;;;;;;;;;5109973;28;20032;-69
2022/03/29 00:34:30;;;;;;;15.25;8.30;;;;;;;;;;5110479;28;20035;-69
2022/03/29 00:36:56;;;;;;;19.48;9.15;;;;;;;;;;5091957;28;20024;-69
2022/03/29 00:39:22;;;;;;;18.80;7.88;;;;;;;;;;5091644;28;20058;-69
2022/03/29 00:41:48;;;;;;;32.13;8.95;;;;;;;;;;5112796;27;20030;-69
2022/03/29 00:44:15;;;;;;;17.25;8.32;;;;;;;;;;5130368;27;20035;-70
2022/03/29 00:46:41;;;;;;;22.77;8.60;;;;;;;;;;5112259;27;20480;-69
2022/03/29 00:49:08;;;;;;;19.98;8.60;;;;;;;;;;5130680;27;20027;-70
2022/03/29 00:51:34;;;;;;;24.88;9.35;;;;;;;;;;5130269;27;20132;-69
2022/03/29 00:54:00;;;;;;;28.60;9.02;;;;;;;;;;5115985;27;20024;-70
2022/03/29 00:56:27;;;;;;;24.38;9.10;;;;;;;;;;5091720;27;20084;-70
2022/03/29 00:58:53;;;;;;;19.85;8.15;;;;;;;;;;5130539;27;20118;-70
2022/03/29 01:01:19;;;;;;;26.58;8.63;;;;;;;;;;5131078;27;20097;-70
2022/03/29 01:03:45;;;;;;;30.10;8.65;;;;;;;;;;5110997;28;20020;-70
2022/03/29 01:06:12;;;;;;;20.00;7.15;;;;;;;;;;5110231;28;20051;-69
2022/03/29 01:08:38;;;;;;;27.40;7.70;;;;;;;;;;5109890;28;20633;-70
2022/03/29 01:11:12;;;;;;;19.92;7.88;;;;;;;;;;5091391;28;20023;-71
2022/03/29 01:13:41;;;;;;;19.45;7.80;;;;;;;;;;5109024;27;20543;-70
2022/03/29 01:18:53;;;;;;;19.67;8.00;;;;;;;;;;5109398;28;20051;-70
2022/03/29 01:21:20;;;;;;;15.48;7.22;;;;;;;;;;5109077;28;20482;-70
2022/03/29 01:23:48;;;;;;;24.05;8.73;;;;;;;;;;5091064;28;20035;-70
2022/03/29 01:26:17;;;;;;;17.08;7.78;;;;;;;;;;5091100;28;20032;-70
2022/03/29 01:28:45;;;;;;;16.27;7.72;;;;;;;;;;5107486;28;20163;-70
2022/03/29 01:31:11;;;;;;;14.68;7.60;;;;;;;;;;5130021;28;20110;-72
2022/03/29 01:33:38;;;;;;;21.25;7.70;;;;;;;;;;5129738;28;20023;-69
2022/03/29 01:36:05;;;;;;;23.75;8.00;;;;;;;;;;5129931;28;20023;-70
2022/03/29 01:38:31;;;;;;;21.08;7.55;;;;;;;;;;5129396;28;20070;-70
2022/03/29 01:41:07;;;;;;;29.83;8.75;;;;;;;;;;5111114;28;20020;-70
2022/03/29 01:43:34;;;;;;;23.70;8.55;;;;;;;;;;5105107;28;20134;-71
2022/03/29 01:46:00;;;;;;;15.68;8.15;;;;;;;;;;5130060;28;20023;-70
2022/03/29 01:48:27;;;;;;;20.02;7.40;;;;;;;;;;5111914;28;20024;-69
2022/03/29 01:50:53;;;;;;;24.88;9.50;;;;;;;;;;5130079;28;20107;-70
2022/03/29 01:53:26;;;;;;;23.33;8.02;;;;;;;;;;5121929;28;20031;-70
2022/03/29 01:55:59;;;;;;;23.50;7.78;;;;;;;;;;5089954;28;20122;-70
2022/03/29 01:58:26;;;;;;;18.20;6.72;;;;;;;;;;5091312;28;20092;-70
2022/03/29 02:00:52;;;;;;;24.00;8.77;;;;;;;;;;5091246;28;20020;-70
2022/03/29 02:03:18;;;;;;;20.17;8.32;;;;;;;;;;5108348;28;20074;-70
2022/03/29 02:05:44;;;;;;;23.48;8.40;;;;;;;;;;5111126;28;20028;-70
2022/03/29 02:08:11;;;;;;;22.00;8.30;;;;;;;;;;5094918;28;20065;-70
2022/03/29 02:10:38;;;;;;;17.08;7.82;;;;;;;;;;5113345;28;20055;-70
2022/03/29 02:13:04;;;;;;;22.23;7.82;;;;;;;;;;5101160;27;20050;-71
2022/03/29 02:15:30;;;;;;;30.73;8.73;;;;;;;;;;5074556;28;20028;-70
2022/03/29 02:17:56;;;;;;;26.60;8.30;;;;;;;;;;5092371;28;20155;-70
2022/03/29 02:20:23;;;;;;;20.95;8.35;;;;;;;;;;5092443;28;20054;-70
2022/03/29 02:22:49;;;;;;;20.33;8.18;;;;;;;;;;5092208;28;20020;-70
2022/03/29 02:25:16;;;;;;;18.20;7.88;;;;;;;;;;5092250;28;20114;-70
2022/03/29 02:27:43;;;;;;;18.58;7.10;;;;;;;;;;5099702;27;20031;-70
2022/03/29 02:30:10;;;;;;;24.55;7.68;;;;;;;;;;5133959;27;20031;-70
2022/03/29 02:32:36;;;;;;;19.95;7.50;;;;;;;;;;5114048;27;20470;-70
2022/03/29 02:35:03;;;;;;;20.13;8.35;;;;;;;;;;5133330;27;20019;-70
2022/03/29 02:37:29;;;;;;;25.73;8.32;;;;;;;;;;5133455;27;20054;-70
2022/03/29 02:39:55;;;;;;;20.60;8.70;;;;;;;;;;5114515;27;20411;-70
2022/03/29 02:42:21;;;;;;;17.45;7.93;;;;;;;;;;5127342;27;20060;-72
2022/03/29 02:44:47;;;;;;;17.92;8.40;;;;;;;;;;5110104;27;20031;-70
2022/03/29 02:47:13;;;;;;;23.70;8.55;;;;;;;;;;5097827;28;20168;-70
2022/03/29 02:49:38;;;;;;;16.95;8.07;;;;;;;;;;5092090;28;20046;-70
2022/03/29 02:52:05;;;;;;;25.15;9.27;;;;;;;;;;5089620;28;20823;-71
2022/03/29 02:54:31;;;;;;;17.27;8.63;;;;;;;;;;5090854;28;20050;-70
2022/03/29 02:57:00;;;;;;;22.98;7.53;;;;;;;;;;5112458;28;20099;-70
2022/03/29 02:59:26;;;;;;;24.85;7.95;;;;;;;;;;5127708;27;20078;-70
2022/03/29 03:01:52;;;;;;;16.38;7.53;;;;;;;;;;5132580;27;20084;-70
2022/03/29 03:04:18;;;;;;;18.33;7.65;;;;;;;;;;5113354;27;20557;-70
2022/03/29 03:06:44;;;;;;;21.35;7.60;;;;;;;;;;5132881;27;20019;-70
2022/03/29 03:09:10;;;;;;;16.20;7.45;;;;;;;;;;5132573;27;20031;-70
2022/03/29 03:11:36;;;;;;;22.95;7.60;;;;;;;;;;5132288;27;20146;-70
2022/03/29 03:14:03;;;;;;;14.65;7.20;;;;;;;;;;5112012;27;20090;-70
2022/03/29 03:16:29;;;;;;;17.83;7.90;;;;;;;;;;5112934;27;20019;-70
2022/03/29 03:18:55;;;;;;;18.92;7.57;;;;;;;;;;5132051;27;20035;-70
2022/03/29 03:21:21;;;;;;;17.13;7.93;;;;;;;;;;5131233;27;20049;-71
2022/03/29 03:23:47;;;;;;;19.55;8.20;;;;;;;;;;5113622;27;20463;-70
2022/03/29 03:26:13;;;;;;;17.52;7.65;;;;;;;;;;5132317;27;20494;-70
2022/03/29 03:28:39;;;;;;;20.70;8.20;;;;;;;;;;5130980;27;20050;-70
2022/03/29 03:31:05;;;;;;;15.85;6.95;;;;;;;;;;5131551;27;20460;-71
2022/03/29 03:33:31;;;;;;;15.68;8.50;;;;;;;;;;5131086;27;20483;-70
2022/03/29 03:35:57;;;;;;;17.75;7.70;;;;;;;;;;5119506;27;20110;-70
2022/03/29 03:38:23;;;;;;;18.38;8.50;;;;;;;;;;5097215;28;20040;-71
2022/03/29 03:40:49;;;;;;;19.70;7.90;;;;;;;;;;5104273;28;20024;-70
2022/03/29 03:43:15;;;;;;;15.48;7.22;;;;;;;;;;5095482;27;20041;-70
2022/03/29 03:45:41;;;;;;;28.95;9.32;;;;;;;;;;5132193;27;20023;-71
2022/03/29 03:48:08;;;;;;;23.63;8.48;;;;;;;;;;5131686;27;20090;-70
2022/03/29 03:50:34;;;;;;;19.55;7.70;;;;;;;;;;5132783;27;20048;-70
2022/03/29 03:53:00;;;;;;;18.20;8.75;;;;;;;;;;5125048;27;20121;-70
2022/03/29 03:55:26;;;;;;;16.25;7.43;;;;;;;;;;5092682;28;20024;-70
2022/03/29 03:57:52;;;;;;;16.10;8.18;;;;;;;;;;5110437;28;20024;-70
2022/03/29 04:00:21;;;;;;;21.55;7.45;;;;;;;;;;5110692;27;20032;-70
2022/03/29 04:02:49;;;;;;;20.00;8.63;;;;;;;;;;5110959;28;20110;-71
2022/03/29 04:05:15;;;;;;;24.42;8.00;;;;;;;;;;5111204;28;20369;-70
2022/03/29 04:07:41;;;;;;;23.77;8.57;;;;;;;;;;5111280;28;20027;-70
2022/03/29 04:10:08;;;;;;;16.20;7.72;;;;;;;;;;5092613;28;20024;-70
2022/03/29 04:12:34;;;;;;;21.85;8.48;;;;;;;;;;5071689;28;20392;-70
2022/03/29 04:15:00;;;;;;;22.92;9.00;;;;;;;;;;5103240;27;20034;-70
2022/03/29 04:17:26;;;;;;;21.20;8.35;;;;;;;;;;5112831;27;20023;-70
2022/03/29 04:19:52;;;;;;;17.67;8.70;;;;;;;;;;5116843;27;20034;-70
2022/03/29 04:22:18;;;;;;;19.42;8.68;;;;;;;;;;5092771;28;20054;-70
2022/03/29 04:24:47;;;;;;;15.55;7.72;;;;;;;;;;5111557;28;20048;-70
2022/03/29 04:27:13;;;;;;;19.02;8.15;;;;;;;;;;5107665;28;20472;-71
2022/03/29 04:29:39;;;;;;;21.63;8.73;;;;;;;;;;5114562;27;20035;-70
2022/03/29 04:32:06;;;;;;;20.73;8.73;;;;;;;;;;5112964;28;20032;-70
2022/03/29 04:34:34;;;;;;;16.30;8.05;;;;;;;;;;5095407;28;20019;-70
2022/03/29 04:37:00;;;;;;;20.80;8.73;;;;;;;;;;5095220;28;20019;-70
2022/03/29 04:39:43;;;;;;;20.63;9.20;;;;;;;;;;5095577;28;20502;-70
2022/03/29 04:42:18;;;;;;;21.52;7.93;;;;;;;;;;5113254;28;20020;-70
2022/03/29 04:44:44;;;;;;;20.73;8.45;;;;;;;;;;5123784;27;20038;-70
2022/03/29 04:47:10;;;;;;;17.48;7.53;;;;;;;;;;5133331;27;20019;-70
2022/03/29 04:49:36;;;;;;;25.85;8.48;;;;;;;;;;5131838;27;20050;-70
2022/03/29 04:52:02;;;;;;;21.00;8.10;;;;;;;;;;5109051;27;20501;-70
2022/03/29 04:54:29;;;;;;;27.45;8.60;;;;;;;;;;5100182;28;20101;-70
2022/03/29 04:56:55;;;;;;;18.30;8.32;;;;;;;;;;5101533;28;20055;-70
2022/03/29 04:59:21;;;;;;;30.30;8.40;;;;;;;;;;5093148;27;20387;-70
2022/03/29 05:01:47;;;;;;;23.85;9.00;;;;;;;;;;5093004;28;20024;-70
2022/03/29 05:04:13;;;;;;;19.13;9.00;;;;;;;;;;5102598;28;20027;-70
2022/03/29 05:06:39;;;;;;;20.63;8.35;;;;;;;;;;5084141;28;20110;-70
2022/03/29 05:09:05;;;;;;;18.55;7.55;;;;;;;;;;5094958;28;20020;-71
2022/03/29 05:11:31;;;;;;;23.77;7.90;;;;;;;;;;5096055;28;20040;-70
2022/03/29 05:13:57;;;;;;;21.40;9.32;;;;;;;;;;5103498;28;20027;-70
2022/03/29 05:16:23;;;;;;;21.73;8.05;;;;;;;;;;5093676;28;20032;-70
2022/03/29 05:18:51;;;;;;;28.00;8.25;;;;;;;;;;5090180;28;20036;-69
2022/03/29 05:21:17;;;;;;;18.50;8.15;;;;;;;;;;5098332;28;20016;-69
2022/03/29 05:23:43;;;;;;;18.98;8.65;;;;;;;;;;5096360;28;20187;-70
2022/03/29 05:26:09;;;;;;;22.90;7.57;;;;;;;;;;5104663;28;20028;-69
2022/03/29 05:28:35;;;;;;;21.48;8.00;;;;;;;;;;5105432;28;20476;-69
2022/03/29 05:31:01;;;;;;;19.08;7.95;;;;;;;;;;5088998;28;20034;-69
2022/03/29 05:33:27;;;;;;;22.23;8.25;;;;;;;;;;5082003;28;20077;-69
2022/03/29 05:35:53;;;;;;;20.65;7.90;;;;;;;;;;5080708;28;20024;-69
2022/03/29 05:38:19;;;;;;;15.30;7.88;;;;;;;;;;5101075;28;20051;-69
2022/03/29 05:40:45;;;;;;;23.40;8.18;;;;;;;;;;5099035;28;20023;-69
2022/03/29 05:43:12;;;;;;;18.92;8.73;;;;;;;;;;5097306;28;20080;-69
2022/03/29 05:45:38;;;;;;;20.00;8.40;;;;;;;;;;5110260;27;20176;-69
2022/03/29 05:50:50;;;;;;;16.23;7.45;;;;;;;;;;5097431;28;20026;-69
2022/03/29 05:53:16;;;;;;;16.27;7.85;;;;;;;;;;5107704;28;20493;-70
2022/03/29 05:55:42;;;;;;;21.35;8.93;;;;;;;;;;5086967;28;20023;-69
2022/03/29 05:58:08;;;;;;;18.23;8.55;;;;;;;;;;5102616;28;20115;-69
2022/03/29 06:00:34;;;;;;;16.23;7.50;;;;;;;;;;5112992;27;20472;-70
2022/03/29 06:03:00;;;;;;;21.60;8.00;;;;;;;;;;5104093;28;20488;-69
2022/03/29 06:05:27;;;;;;;18.92;8.00;;;;;;;;;;5086566;28;20127;-69
2022/03/29 06:07:53;;;;;;;19.02;7.93;;;;;;;;;;5101010;28;20038;-69
2022/03/29 06:10:19;;;;;;;20.63;7.65;;;;;;;;;;5099866;28;20024;-69
2022/03/29 06:12:45;;;;;;;23.45;7.18;;;;;;;;;;5101135;28;20049;-69
2022/03/29 06:15:12;;;;;;;17.95;8.23;;;;;;;;;;5089720;28;20062;-69
2022/03/29 06:17:38;;;;;;;20.10;8.23;;;;;;;;;;5084602;28;20039;-69
2022/03/29 06:20:06;;;;;;;20.38;8.23;;;;;;;;;;5103025;28;20032;-69
2022/03/29 06:22:32;;;;;;;20.38;7.95;;;;;;;;;;5098757;28;20023;-69
2022/03/29 06:24:59;;;;;;;23.67;8.85;;;;;;;;;;5103760;28;20106;-69
2022/03/29 06:27:25;;;;;;;19.17;8.07;;;;;;;;;;5101167;28;20028;-69
2022/03/29 06:29:53;;;;;;;27.65;8.35;;;;;;;;;;5106486;28;21018;-69
2022/03/29 06:32:19;;;;;;;21.25;8.77;;;;;;;;;;5099171;28;20511;-69
2022/03/29 06:34:46;;;;;;;20.73;7.72;;;;;;;;;;5108942;28;20032;-69
2022/03/29 06:37:12;;;;;;;20.30;7.88;;;;;;;;;;5113419;28;20077;-69
2022/03/29 06:39:38;;;;;;;22.63;9.18;;;;;;;;;;5101536;28;20036;-69
2022/03/29 06:42:04;;;;;;;21.77;7.70;;;;;;;;;;5094233;28;20032;-69
2022/03/29 06:44:33;;;;;;;15.93;7.38;;;;;;;;;;5092116;28;20453;-70
2022/03/29 06:47:00;;;;;;;23.17;8.27;;;;;;;;;;5131349;28;20062;-69
2022/03/29 06:49:26;;;;;;;20.70;9.15;;;;;;;;;;5124371;28;20024;-69
2022/03/29 06:51:52;;;;;;;23.23;8.30;;;;;;;;;;5110123;28;20036;-69
2022/03/29 06:54:18;;;;;;;19.88;8.02;;;;;;;;;;5110317;28;20051;-69
2022/03/29 06:56:44;;;;;;;20.23;8.75;;;;;;;;;;5092100;28;20066;-69
2022/03/29 06:59:10;;;;;;;20.98;8.43;;;;;;;;;;5111232;28;20042;-69
2022/03/29 07:01:36;;;;;;;25.67;9.32;;;;;;;;;;5126337;28;20399;-69
2022/03/29 07:04:03;;;;;;;37.67;9.10;;;;;;;;;;5130644;28;20019;-69
2022/03/29 07:06:32;;;;;;;33.22;8.57;;;;;;;;;;5112716;28;20399;-69
2022/03/29 07:11:45;;;;;;;23.45;8.02;;;;;;;;;;5131128;28;20039;-70
2022/03/29 07:14:12;;;;;;;17.13;7.32;;;;;;;;;;5063558;28;1141893;-69
2022/03/29 07:16:39;;;;;;;17.67;7.25;;;;;;;;;;5108798;27;20653;-69
2022/03/29 07:19:09;;;;;;;23.00;8.35;;;;;;;;;;5120988;27;20084;-70
2022/03/29 07:21:39;;;;;;;17.85;7.85;;;;;;;;;;5111297;28;20027;-69
2022/03/29 07:24:05;;;;;;;19.50;7.55;;;;;;;;;;5112112;28;20020;-73
2022/03/29 07:26:31;;;;;;;17.63;8.40;;;;;;;;;;5111883;28;20084;-73
2022/03/29 07:28:57;;;;;;;19.45;7.57;;;;;;;;;;5111780;28;20020;-72
2022/03/29 07:31:24;;;;;;;18.83;8.48;;;;;;;;;;5125908;27;20039;-71
2022/03/29 07:33:50;;;;;;;18.90;8.13;;;;;;;;;;5133891;27;20022;-71
2022/03/29 07:36:16;;;;;;;33.83;8.77;;;;;;;;;;5115699;27;20046;-72
2022/03/29 07:38:42;;;;;;;27.55;8.32;;;;;;;;;;5114219;27;20062;-71
2022/03/29 07:41:08;;;;;;;18.05;7.95;;;;;;;;;;5131734;27;20672;-74
2022/03/29 07:43:34;;;;;;;25.20;9.65;;;;;;;;;;5130290;27;20031;-71
2022/03/29 07:46:00;;;;;;;19.85;8.07;;;;;;;;;;5130692;27;20393;-71
2022/03/29 07:48:26;;;;;;;17.45;7.55;;;;;;;;;;5131194;27;20030;-71
2022/03/29 07:50:52;;;;;;;14.85;7.32;;;;;;;;;;5112732;27;20019;-72
2022/03/29 07:53:18;;;;;;;14.13;7.63;;;;;;;;;;5109730;28;20102;-71
2022/03/29 07:55:45;;;;;;;14.27;6.72;;;;;;;;;;5111430;28;20029;-71
2022/03/29 07:58:12;;;;;;;17.20;7.43;;;;;;;;;;5109364;28;20480;-71
2022/03/29 08:00:39;;;;;;;21.38;8.38;;;;;;;;;;5115597;27;20084;-71
2022/03/29 08:03:09;;;;;;;18.15;7.47;;;;;;;;;;5129437;27;20475;-72
2022/03/29 08:05:36;;;;;;;35.70;8.68;;;;;;;;;;5132639;27;20022;-71
2022/03/29 08:08:02;;;;;;;22.38;6.72;;;;;;;;;;5132673;27;20027;-72
2022/03/29 08:10:29;;;;;;;23.85;8.27;;;;;;;;;;5131557;27;20031;-72
2022/03/29 08:12:56;;;;;;;16.83;8.32;;;;;;;;;;5129784;27;20027;-72
2022/03/29 08:15:22;;;;;;;24.75;8.07;;;;;;;;;;5113107;27;20061;-72
2022/03/29 08:17:51;;;;;;;21.20;8.00;;;;;;;;;;5130444;27;20075;-72
2022/03/29 08:20:17;;;;;;;19.50;7.57;;;;;;;;;;5130522;27;20051;-72
2022/03/29 08:22:44;;;;;;;13.18;6.28;;;;;;;;;;5129744;27;20033;-71
2022/03/29 08:25:12;;;;;;;14.52;6.55;;;;;;;;;;5128358;27;20030;-71
2022/03/29 08:27:38;;;;;;;24.25;8.20;;;;;;;;;;5109830;28;20035;-71
2022/03/29 08:30:05;;;;;;;30.70;7.68;;;;;;;;;;5110897;28;20024;-73
2022/03/29 08:32:35;;;;;;;19.48;7.45;;;;;;;;;;5127339;27;20064;-72
2022/03/29 08:35:01;;;;;;;24.25;8.05;;;;;;;;;;5112692;27;20388;-69
2022/03/29 08:37:28;;;;;;;20.95;6.85;;;;;;;;;;5130689;27;20061;-70
2022/03/29 08:39:54;;;;;;;18.20;8.85;;;;;;;;;;5130184;27;20035;-71
2022/03/29 08:42:22;;;;;;;24.00;9.50;;;;;;;;;;5130231;27;20031;-72
2022/03/29 08:44:49;;;;;;;22.20;7.32;;;;;;;;;;5130415;27;20047;-70
2022/03/29 08:47:15;;;;;;;23.60;11.35;;;;;;;;;;5129445;27;20031;-72
2022/03/29 08:49:43;;;;;;;20.02;8.57;;;;;;;;;;5130192;27;20018;-72
2022/03/29 08:52:11;;;;;;;20.73;8.95;;;;;;;;;;5129906;27;20023;-72
2022/03/29 08:54:37;;;;;;;25.05;9.30;;;;;;;;;;5109301;27;20027;-72
2022/03/29 08:57:03;;;;;;;25.90;10.88;;;;;;;;;;5110098;28;20606;-72
2022/03/29 08:59:29;;;;;;;21.38;9.02;;;;;;;;;;5109174;28;20142;-72
2022/03/29 09:01:58;;;;;;;15.20;7.13;;;;;;;;;;5119967;27;20113;-72
2022/03/29 09:04:25;;;;;;;25.67;7.95;;;;;;;;;;5109909;27;20030;-71
2022/03/29 09:06:56;;;;;;;19.83;8.23;;;;;;;;;;5130376;27;20019;-73
2022/03/29 09:09:21;;;;;;;;;;;;;;;;;;5131056;27;20027;-72
2022/03/29 09:11:47;;;;;;;18.38;7.47;;;;;;;;;;5129874;27;20656;-72
2022/03/29 09:14:13;;;;;;;14.75;7.10;;;;;;;;;;5120287;27;20495;-72
2022/03/29 09:16:41;;;;;;;19.50;8.68;;;;;;;;;;5109585;28;20036;-72
2022/03/29 09:19:09;;;;;;;24.33;10.00;;;;;;;;;;5111442;28;20084;-72
2022/03/29 09:21:44;;;;;;;23.75;9.10;;;;;;;;;;5111598;28;20157;-72
2022/03/29 09:24:15;;;;;;;14.88;7.93;;;;;;;;;;5112277;28;20110;-72
2022/03/29 09:26:49;;;;;;;19.15;8.55;;;;;;;;;;5112387;28;20051;-72
2022/03/29 09:29:20;;;;;;;32.40;9.88;;;;;;;;;;5112829;28;20027;-72
2022/03/29 09:31:48;;;;;;;18.45;9.13;;;;;;;;;;5113307;28;20016;-71
2022/03/29 09:34:16;;;;;;;24.80;9.95;;;;;;;;;;5094906;28;20027;-72
2022/03/29 09:36:45;;;;;;;18.95;8.88;;;;;;;;;;5110125;28;20123;-72
2022/03/29 09:39:49;;;;;;;19.77;9.82;;;;;;;;;;5112147;28;20035;-72
2022/03/29 09:42:20;;;;;;;23.00;7.97;;;;;;;;;;5008747;28;20415;-71
2022/03/29 09:44:49;;;;;;;22.45;8.40;;;;;;;;;;5006343;28;20034;-72
2022/03/29 09:47:20;;;;;;;13.98;5.95;;;;;;;;;;5004578;28;20037;-72
2022/03/29 09:49:46;;;;;;;;;;;;;;;;;;5006684;28;20168;-72
2022/03/29 09:52:15;;;;;;;19.73;7.90;;;;;;;;;;5004855;28;20626;-72
2022/03/29 09:54:42;;;;;;;13.02;6.65;;;;;;;;;;4989838;28;20033;-72
2022/03/29 09:57:09;;;;;;;22.73;8.32;;;;;;;;;;5005953;28;20121;-73
2022/03/29 09:59:48;;;;;;;29.33;8.98;;;;;;;;;;5005768;28;20034;-72
2022/03/29 10:02:14;;;;;;;20.80;9.90;;;;;;;;;;4993249;28;20034;-72
2022/03/29 10:04:40;;;;;;;19.35;8.35;;;;;;;;;;5012909;28;20084;-72
2022/03/29 10:07:09;;;;;;;25.65;9.32;;;;;;;;;;4989881;28;20069;-73
2022/03/29 10:09:38;;;;;;;25.55;8.13;;;;;;;;;;4989793;28;20045;-72
2022/03/29 10:12:09;;;;;;;24.23;9.40;;;;;;;;;;5014748;28;20092;-73
2022/03/29 10:14:37;;;;;;;22.42;10.05;;;;;;;;;;5090498;28;20503;-72
2022/03/29 10:17:04;;;;;;;21.23;8.80;;;;;;;;;;5096733;28;20396;-72
2022/03/29 10:19:30;;;;;;;21.42;8.60;;;;;;;;;;5128935;28;20195;-72
2022/03/29 10:21:58;;;;;;;26.20;10.02;;;;;;;;;;5110324;28;20644;-72
2022/03/29 10:24:25;;;;;;;24.33;10.98;;;;;;;;;;5129106;28;20038;-72
2022/03/29 10:26:52;;;;;;;26.75;10.32;;;;;;;;;;5113522;27;20502;-72
2022/03/29 10:29:18;;;;;;;22.70;9.45;;;;;;;;;;5114822;27;20023;-72
2022/03/29 10:31:53;;;;;;;21.02;9.00;;;;;;;;;;5128969;27;20519;-73
2022/03/29 10:34:19;;;;;;;28.42;9.52;;;;;;;;;;5112520;28;20024;-72
2022/03/29 10:37:04;;;;;;;21.98;10.30;;;;;;;;;;5112427;28;20016;-72
2022/03/29 10:39:45;;;;;;;20.48;8.38;;;;;;;;;;5112644;28;20115;-72
2022/03/29 10:42:30;;;;;;;24.65;7.43;;;;;;;;;;5112431;28;20024;-72
2022/03/29 10:45:11;;;;;;;23.40;9.40;;;;;;;;;;5094359;28;20476;-72
2022/03/29 10:47:37;;;;;;;29.23;11.25;;;;;;;;;;5102615;27;20039;-72
2022/03/29 10:50:04;;;;;;;23.38;9.68;;;;;;;;;;5132803;27;20027;-72
2022/03/29 10:52:37;;;;;;;29.80;10.30;;;;;;;;;;5131459;27;20038;-72
2022/03/29 10:55:25;;;;;;;25.35;11.25;;;;;;;;;;5112181;28;20073;-72
2022/03/29 10:58:10;;;;;;;22.85;9.73;;;;;;;;;;5112060;28;20016;-72
2022/03/29 11:00:37;;;;;;;22.95;9.85;;;;;;;;;;5112190;28;20227;-71
2022/03/29 11:03:10;;;;;;;25.00;9.55;;;;;;;;;;5123581;27;20162;-72
2022/03/29 11:05:55;;;;;;;31.35;10.73;;;;;;;;;;5114015;27;20042;-73
2022/03/29 11:08:21;;;;;;;23.50;10.25;;;;;;;;;;5132160;27;20395;-72
2022/03/29 11:10:48;;;;;;;27.35;11.10;;;;;;;;;;5132197;27;20023;-72
2022/03/29 11:13:23;;;;;;;21.08;10.52;;;;;;;;;;5112323;27;20126;-72
2022/03/29 11:15:50;;;;;;;29.83;12.02;;;;;;;;;;5112223;28;20028;-72
2022/03/29 11:18:31;;;;;;;28.98;12.43;;;;;;;;;;5123590;27;20081;-73
2022/03/29 11:21:02;;;;;;;23.10;9.80;;;;;;;;;;5131572;27;20023;-72
2022/03/29 11:23:36;;;;;;;22.63;9.90;;;;;;;;;;5113842;27;20035;-71
2022/03/29 11:26:08;;;;;;;23.58;10.15;;;;;;;;;;5113825;27;20025;-72
2022/03/29 11:28:34;;;;;;;27.20;10.80;;;;;;;;;;5113469;27;20531;-72
2022/03/29 11:31:00;;;;;;;24.05;11.00;;;;;;;;;;5114129;27;20035;-72
2022/03/29 11:33:34;;;;;;;30.83;8.98;;;;;;;;;;5111667;27;20540;-72
2022/03/29 11:36:01;;;;;;;20.92;10.02;;;;;;;;;;5131940;27;20054;-72
2022/03/29 11:38:31;;;;;;;21.80;10.15;;;;;;;;;;5112550;27;20028;-72
2022/03/29 11:40:57;;;;;;;22.77;9.27;;;;;;;;;;5099026;28;20036;-72
2022/03/29 11:43:23;;;;;;;21.58;9.30;;;;;;;;;;5098343;28;20023;-72
2022/03/29 11:45:51;;;;;;;25.77;10.90;;;;;;;;;;5072366;28;20032;-72
2022/03/29 11:48:18;;;;;;;18.65;9.88;;;;;;;;;;5112041;27;20062;-72
2022/03/29 11:50:51;;;;;;;17.88;8.68;;;;;;;;;;5113946;27;20058;-72
2022/03/29 11:53:18;;;;;;;19.35;9.18;;;;;;;;;;5126014;27;20016;-72
2022/03/29 11:55:57;;;;;;;21.17;7.97;;;;;;;;;;5111514;28;20036;-72
2022/03/29 11:58:24;;;;;;;19.90;8.73;;;;;;;;;;5110705;28;20028;-72
2022/03/29 12:00:50;;;;;;;17.77;9.07;;;;;;;;;;5110792;28;20428;-72
2022/03/29 12:03:38;;;;;;;14.35;7.32;;;;;;;;;;5119471;27;20016;-72
2022/03/29 12:06:05;;;;;;;20.77;8.45;;;;;;;;;;5114184;27;20078;-72
2022/03/29 12:08:49;;;;;;;26.83;8.50;;;;;;;;;;5114200;27;20022;-72
2022/03/29 12:11:20;;;;;;;20.00;7.15;;;;;;;;;;5103634;28;20016;-71
2022/03/29 12:13:46;;;;;;;;;;;;;;;;;;5094501;28;20060;-72
2022/03/29 12:16:16;;;;;;;13.75;3.88;;;;;;;;;;5092809;28;19904;-72
2022/03/29 12:18:42;;;;;;;27.42;9.15;;;;;;;;;;5085010;28;20074;-72
2022/03/29 12:21:12;;;;;;;12.48;5.20;;;;;;;;;;5092674;28;20085;-72
2022/03/29 12:23:38;;;;;;;24.35;7.80;;;;;;;;;;5113167;28;20020;-72
2022/03/29 12:26:04;;;;;;;21.83;7.75;;;;;;;;;;5093687;28;20031;-72
2022/03/29 12:28:31;;;;;;;17.70;6.38;;;;;;;;;;5110758;28;20051;-72
2022/03/29 12:30:57;;;;;;;14.00;5.00;;;;;;;;;;5092425;28;20472;-72
2022/03/29 12:33:24;;;;;;;16.63;6.07;;;;;;;;;;5092232;28;20055;-72
2022/03/29 12:36:22;;;;;;;17.45;6.90;;;;;;;;;;5110858;28;20023;-72
2022/03/29 12:38:52;;;;;;;23.42;6.82;;;;;;;;;;5007916;28;20042;-72
2022/03/29 12:41:41;;;;;;;13.30;6.63;;;;;;;;;;5007595;28;20128;-72
2022/03/29 12:44:08;;;;;;;18.33;7.47;;;;;;;;;;5007602;28;20077;-72
2022/03/29 12:46:35;;;;;;;27.15;6.13;;;;;;;;;;4989696;28;20076;-72
2022/03/29 12:49:01;;;;;;;14.35;7.18;;;;;;;;;;4992712;28;20434;-72
2022/03/29 12:51:29;;;;;;;16.38;5.78;;;;;;;;;;4991392;28;20064;-72
2022/03/29 12:53:59;;;;;;;22.60;5.85;;;;;;;;;;4997099;28;20053;-71
2022/03/29 12:56:32;;;;;;;18.40;4.93;;;;;;;;;;4989754;28;20476;-71
2022/03/29 12:58:59;;;;;;;27.50;5.38;;;;;;;;;;4988862;28;20042;-71
2022/03/29 13:01:27;;;;;;;38.60;6.18;;;;;;;;;;4987957;28;20034;-72
2022/03/29 13:06:57;;;;;;;29.73;4.80;;;;;;;;;;5099056;22;20128;-77
2022/03/29 13:09:23;;;;;;;26.35;4.60;;;;;;;;;;5064167;28;20362;-76
2022/03/29 13:12:08;;;;;;;23.65;4.43;;;;;;;;;;5068911;28;20039;-76
2022/03/29 13:14:38;;;;;;;22.48;5.00;;;;;;;;;;5081957;28;20020;-76
2022/03/29 13:17:04;;;;;;;34.35;5.55;;;;;;;;;;5089761;28;20027;-76
2022/03/29 13:19:31;;;;;;;33.25;5.50;;;;;;;;;;5088521;28;20044;-76
2022/03/29 13:22:01;;;;;;;16.33;4.68;;;;;;;;;;5089946;28;20055;-76
2022/03/29 13:24:34;;;;;;;16.83;4.35;;;;;;;;;;5089360;28;20599;-76
2022/03/29 13:27:01;;;;;;;21.45;4.10;;;;;;;;;;5090043;28;20032;-76
2022/03/29 13:29:27;;;;;;;28.17;4.78;;;;;;;;;;5089369;28;20028;-76
2022/03/29 13:31:54;;;;;;;30.92;6.05;;;;;;;;;;5089349;28;20107;-76
2022/03/29 13:34:20;;;;;;;19.85;4.70;;;;;;;;;;5088190;28;20032;-76
2022/03/29 13:36:46;;;;;;;14.63;4.68;;;;;;;;;;5090218;28;20028;-76
2022/03/29 13:39:14;;;;;;;17.42;4.45;;;;;;;;;;5089657;28;20115;-77
2022/03/29 13:41:40;;;;;;;12.93;3.20;;;;;;;;;;5090981;28;20032;-76
2022/03/29 13:44:06;;;;;;;15.02;4.10;;;;;;;;;;5079893;28;20016;-77
2022/03/29 13:46:33;;;;;;;14.88;4.70;;;;;;;;;;5081200;28;20021;-76
2022/03/29 13:48:59;;;;;;;19.35;4.32;;;;;;;;;;5092680;28;20028;-76
2022/03/29 13:51:27;;;;;;;20.80;4.80;;;;;;;;;;5092442;28;20031;-76
2022/03/29 13:53:54;;;;;;;28.40;4.20;;;;;;;;;;5091413;28;20038;-76
2022/03/29 13:56:22;;;;;;;22.63;5.03;;;;;;;;;;5077438;28;20043;-75
2022/03/29 13:58:48;;;;;;;21.83;4.53;;;;;;;;;;5091841;28;20089;-76
2022/03/29 14:01:14;;;;;;;19.13;4.22;;;;;;;;;;5092378;28;20099;-77
2022/03/29 14:03:42;;;;;;;10.43;3.67;;;;;;;;;;5095712;28;20047;-75
2022/03/29 14:06:08;;;;;;;18.23;4.82;;;;;;;;;;5096227;28;20024;-76
2022/03/29 14:08:34;;;;;;;28.85;5.57;;;;;;;;;;5085350;28;20039;-76
2022/03/29 14:11:01;;;;;;;17.65;6.15;;;;;;;;;;5073904;28;20040;-76
2022/03/29 14:13:29;;;;;;;12.20;4.50;;;;;;;;;;5083333;28;20020;-76
2022/03/29 14:15:55;;;;;;;24.85;6.32;;;;;;;;;;5092529;28;20408;-76
2022/03/29 14:18:23;;;;;;;14.40;4.72;;;;;;;;;;5087784;28;20024;-77
2022/03/29 14:20:50;;;;;;;15.60;5.85;;;;;;;;;;5079682;28;20056;-75
2022/03/29 14:23:17;;;;;;;20.83;5.05;;;;;;;;;;5080397;28;20509;-76
2022/03/29 14:25:44;;;;;;;20.45;4.32;;;;;;;;;;5080038;28;20422;-76
2022/03/29 14:28:11;;;;;;;24.77;4.65;;;;;;;;;;5076903;28;20035;-76
2022/03/29 14:30:39;;;;;;;14.77;4.90;;;;;;;;;;5082931;28;20020;-76
2022/03/29 14:33:05;;;;;;;27.83;5.57;;;;;;;;;;5080773;28;20031;-76
2022/03/29 14:35:31;;;;;;;19.48;4.45;;;;;;;;;;5085146;28;20036;-76
2022/03/29 14:37:57;;;;;;;13.98;4.95;;;;;;;;;;5084384;28;21529;-76
2022/03/29 14:40:24;;;;;;;13.35;5.05;;;;;;;;;;5084912;28;20031;-76
2022/03/29 14:42:51;;;;;;;10.88;5.03;;;;;;;;;;5084431;28;20486;-76
2022/03/29 14:45:20;;;;;;;19.60;5.85;;;;;;;;;;5083997;28;20563;-76